KRMG/RMG METAR and TAF weather

Enter ICAO airport designator
Station Type Date Time Source
KRMG METAR 2020/11/28 19:53 UTC NOAA

KRMG 281953Z AUTO VRB06KT 10SM CLR 18/07 A3007 RMK AO2 SLP178 T01780067


Station Type Date Time Source
KRMG Decoded METAR 2020/11/28 19:53 UTC NOAA

ROME R. B. RUSSELL AIRPORT, GA, United States (KRMG) 34-21N 085-10W 193M
Nov 28, 2020 - 02:53 PM EST / 2020.11.28 1953 UTC
Wind: Variable at 7 MPH (6 KT):0
Visibility: 10 mile(s):0
Sky conditions: clear
Temperature: 64.0 F (17.8 C)
Dew Point: 44.1 F (6.7 C)
Relative Humidity: 48%
Pressure (altimeter): 30.07 in. Hg (1018 hPa)
ob: KRMG 281953Z AUTO VRB06KT 10SM CLR 18/07 A3007 RMK AO2 SLP178 T01780067
cycle: 20

Station Type Date Time Source
KRMG TAF UTC NOAA

Error!

Example: see airport list